Fried, North Dakota
Current Conditions -  °F | °C
As of 5:56 AM on Friday 24 Oct 2014 (Local Time) from KJMS Reporting Station
Clear Clear  
Wind Chill: 41°   Ceiling: Unl
Heat Index: 41°   Visibility: 10mi
Dew Point: 35°   Wind: 3mph
Humidity: 79%   Direction: 210°SSW
Pressure: 29.8"   Gusts: NA
Location:  46.8494°N, 98.7424°W
Report Text: KJMS 241056Z AUTO 21003KT 10SM CLR 05/02 A2980 RMK AO2 SLP095 T00500017
Loading
Personal Weather Stations






























Interactive Weather Map
Tropical Storm Tracking
New forecast layout! Learn more

10-Day Weather Forecast

Advertisements
Track Severe Weather on mobile